KCEU/CEU METAR and TAF weather

Enter ICAO airport designator
Station Type Date Time Source
KCEU METAR 2021/03/01 10:54 UTC NOAA

KCEU 011054Z AUTO VRB04KT 10SM SCT020 BKN042 OVC085 18/16 A2987 RMK AO2 SLP108 T01830156


Station Type Date Time Source
KCEU Decoded METAR 2021/03/01 10:54 UTC NOAA

CLEMSON-OCONEE COUNTY AIRPORT , SC, United States (KCEU) 34-40N 082-53W 268M
Mar 01, 2021 - 05:54 AM EST / 2021.03.01 1054 UTC
Wind: Variable at 5 MPH (4 KT):0
Visibility: 10 mile(s):0
Sky conditions: overcast
Temperature: 64.9 F (18.3 C)
Dew Point: 60.1 F (15.6 C)
Relative Humidity: 84%
Pressure (altimeter): 29.87 in. Hg (1011 hPa)
ob: KCEU 011054Z AUTO VRB04KT 10SM SCT020 BKN042 OVC085 18/16 A2987 RMK AO2 SLP108 T01830156
cycle: 11

Station Type Date Time Source
KCEU TAF UTC NOAA

Error!

Example: see airport list